Time;durP1;ratioP1;P1;durP2;ratioP2;P2;SDS_P1;SDS_P2;PMS_P1;PMS_P2;Temp;Humidity;BMP_temperature;BMP_pressure;BME280_temperature;BME280_humidity;BME280_pressure;Samples;Min_cycle;Max_cycle;Signal;HPM_P1;HPM_P2
2023/05/23 00:01:23;;;;;;;76.90;57.63;;;15.70;87.20;;;;;;4979737;28;85235;-71
2023/05/23 00:03:49;;;;;;;74.90;57.38;;;15.70;88.20;;;;;;4977591;28;85685;-73
2023/05/23 00:06:20;;;;;;;73.53;57.10;;;15.70;88.00;;;;;;4981502;28;84977;-73
2023/05/23 00:08:45;;;;;;;76.40;57.63;;;15.70;87.40;;;;;;4974136;28;84890;-74
2023/05/23 00:11:12;;;;;;;76.95;58.13;;;15.60;87.90;;;;;;4974227;28;84889;-74
2023/05/23 00:13:38;;;;;;;74.72;57.47;;;15.60;87.50;;;;;;4978236;28;84865;-73
2023/05/23 00:16:08;;;;;;;76.63;58.90;;;15.60;89.10;;;;;;4974577;28;85120;-72
2023/05/23 00:18:39;;;;;;;76.05;57.78;;;15.60;87.50;;;;;;4973890;28;85501;-73
2023/05/23 00:21:04;;;;;;;75.35;58.88;;;15.60;87.90;;;;;;4978477;28;86765;-73
2023/05/23 00:23:32;;;;;;;77.97;56.95;;;15.60;87.50;;;;;;4977786;28;86655;-73
2023/05/23 00:25:59;;;;;;;74.90;58.00;;;15.60;87.90;;;;;;4970872;28;84890;-71
2023/05/23 00:28:25;;;;;;;74.50;57.03;;;15.60;88.40;;;;;;4972126;28;85115;-73
2023/05/23 00:30:50;;;;;;;74.57;58.47;;;15.60;87.60;;;;;;4974810;28;85257;-72
2023/05/23 00:33:16;;;;;;;77.88;58.10;;;15.60;87.30;;;;;;4974032;28;85530;-72
2023/05/23 00:35:42;;;;;;;80.53;60.10;;;15.60;87.80;;;;;;4977151;28;86195;-74
2023/05/23 00:38:10;;;;;;;80.45;59.22;;;15.60;88.20;;;;;;4973329;28;85644;-72
2023/05/23 00:40:36;;;;;;;79.75;60.28;;;15.50;87.40;;;;;;4976522;28;85441;-73
2023/05/23 00:43:01;;;;;;;82.90;60.60;;;15.50;88.00;;;;;;4972054;28;85562;-75
2023/05/23 00:45:27;;;;;;;79.97;59.97;;;15.50;87.90;;;;;;4967900;28;86517;-73
2023/05/23 00:47:53;;;;;;;81.70;60.63;;;15.50;88.10;;;;;;4967680;28;85182;-70
2023/05/23 00:50:20;;;;;;;78.55;59.20;;;15.50;88.00;;;;;;4976590;28;86859;-73
2023/05/23 00:52:48;;;;;;;78.80;60.67;;;15.50;87.60;;;;;;4969283;28;86409;-74
2023/05/23 00:55:14;;;;;;;81.65;61.33;;;15.50;87.80;;;;;;4974948;28;84972;-73
2023/05/23 00:57:40;;;;;;;79.40;60.90;;;15.50;87.60;;;;;;4977830;28;85471;-73
2023/05/23 01:00:12;;;;;;;78.88;59.65;;;15.50;87.80;;;;;;4978765;28;85421;-71
2023/05/23 01:02:43;;;;;;;81.45;59.60;;;15.50;87.50;;;;;;4967591;28;85058;-73
2023/05/23 01:05:16;;;;;;;74.78;57.95;;;15.50;88.00;;;;;;4966599;28;85155;-72
2023/05/23 01:07:42;;;;;;;78.85;59.45;;;15.40;87.30;;;;;;4969225;28;87434;-74
2023/05/23 01:10:10;;;;;;;79.43;58.90;;;15.40;88.00;;;;;;4973075;28;85040;-73
2023/05/23 01:12:51;;;;;;;76.70;58.75;;;15.50;88.40;;;;;;4976165;28;85550;-71
2023/05/23 01:15:20;;;;;;;78.03;57.80;;;15.40;87.60;;;;;;4973278;28;85358;-75
2023/05/23 01:18:23;;;;;;;77.22;58.92;;;15.40;87.80;;;;;;4974324;28;86049;-75
2023/05/23 01:20:53;;;;;;;75.22;57.78;;;15.40;87.70;;;;;;4980291;28;86840;-75
2023/05/23 01:23:22;;;;;;;76.35;57.63;;;15.40;87.80;;;;;;4974261;28;87627;-74
2023/05/23 01:26:12;;;;;;;79.10;58.25;;;15.40;87.90;;;;;;4969185;28;84452;-74
2023/05/23 01:28:44;;;;;;;74.43;56.45;;;15.40;87.40;;;;;;4977461;28;85520;-74
2023/05/23 01:31:11;;;;;;;72.47;56.88;;;15.40;89.00;;;;;;4975066;28;85825;-74
2023/05/23 01:33:39;;;;;;;74.85;57.58;;;15.50;88.50;;;;;;4976390;28;85242;-71
2023/05/23 01:36:04;;;;;;;72.63;56.90;;;15.50;87.50;;;;;;4974396;28;85629;-73
2023/05/23 01:38:30;;;;;;;72.45;55.97;;;15.40;87.10;;;;;;4977963;28;84961;-74
2023/05/23 01:40:56;;;;;;;74.47;56.72;;;15.40;87.80;;;;;;4977644;28;86214;-72
2023/05/23 01:43:23;;;;;;;73.50;56.05;;;15.40;87.60;;;;;;4984228;28;85020;-72
2023/05/23 01:45:50;;;;;;;74.93;57.35;;;15.40;87.80;;;;;;4979336;28;90170;-73
2023/05/23 01:48:17;;;;;;;70.80;55.50;;;15.40;87.30;;;;;;4979106;28;86905;-72
2023/05/23 01:50:46;;;;;;;73.13;56.83;;;15.40;88.50;;;;;;4979964;28;85020;-73
2023/05/23 01:53:14;;;;;;;67.85;54.72;;;15.40;88.20;;;;;;4980884;28;84807;-75
2023/05/23 01:55:41;;;;;;;73.40;56.53;;;15.40;89.50;;;;;;4976036;28;84633;-74
2023/05/23 01:58:07;;;;;;;67.03;54.90;;;15.40;88.10;;;;;;4975412;28;87848;-72
2023/05/23 02:00:33;;;;;;;74.97;56.50;;;15.40;88.70;;;;;;4989302;28;85687;-73
2023/05/23 02:02:59;;;;;;;70.97;56.20;;;15.40;88.00;;;;;;4976500;28;85922;-72
2023/05/23 02:05:26;;;;;;;73.38;55.97;;;15.40;87.50;;;;;;4982594;28;85128;-73
2023/05/23 02:07:51;;;;;;;73.43;55.70;;;15.40;87.20;;;;;;4971280;28;91567;-71
2023/05/23 02:10:18;;;;;;;69.00;54.90;;;15.40;87.50;;;;;;4982021;28;84741;-71
2023/05/23 02:12:44;;;;;;;73.85;55.65;;;15.40;87.70;;;;;;4976104;28;85465;-73
2023/05/23 02:15:10;;;;;;;69.10;55.00;;;15.40;87.50;;;;;;4978457;28;85046;-73
2023/05/23 02:17:35;;;;;;;67.35;54.03;;;15.40;87.90;;;;;;4980545;28;85282;-72
2023/05/23 02:20:01;;;;;;;69.43;54.67;;;15.40;87.00;;;;;;4969558;28;85599;-72
2023/05/23 02:22:27;;;;;;;65.72;53.85;;;15.40;87.50;;;;;;4969956;28;85559;-73
2023/05/23 02:24:52;;;;;;;65.13;53.95;;;15.40;87.50;;;;;;4975159;28;86224;-71
2023/05/23 02:27:18;;;;;;;65.50;53.63;;;15.40;87.50;;;;;;4975692;28;86116;-76
2023/05/23 02:29:44;;;;;;;67.22;54.05;;;15.40;87.70;;;;;;4980508;28;85197;-72
2023/05/23 02:32:10;;;;;;;66.30;53.67;;;15.40;87.50;;;;;;4980001;28;85570;-74
2023/05/23 02:34:37;;;;;;;66.55;53.88;;;15.40;86.80;;;;;;4979697;28;84961;-71
2023/05/23 02:37:02;;;;;;;70.03;54.40;;;15.40;86.70;;;;;;4973968;28;90092;-73
2023/05/23 02:39:28;;;;;;;69.57;54.33;;;15.40;87.20;;;;;;4970513;28;85131;-71
2023/05/23 02:41:54;;;;;;;67.03;53.63;;;15.40;87.10;;;;;;4973971;28;86792;-73
2023/05/23 02:44:19;;;;;;;66.00;53.95;;;15.40;86.60;;;;;;4977938;28;86119;-73
2023/05/23 02:46:45;;;;;;;68.10;54.03;;;15.40;87.10;;;;;;4969036;28;86775;-71
2023/05/23 02:49:11;;;;;;;68.55;54.45;;;15.40;87.20;;;;;;4969327;28;86479;-73
2023/05/23 02:51:37;;;;;;;67.63;53.97;;;15.40;87.80;;;;;;4968401;28;85530;-73
2023/05/23 02:54:02;;;;;;;70.55;55.88;;;15.40;87.10;;;;;;4974256;28;85053;-74
2023/05/23 02:56:28;;;;;;;70.18;55.63;;;15.40;87.00;;;;;;4978409;28;85810;-75
2023/05/23 02:58:54;;;;;;;69.68;56.42;;;15.40;86.80;;;;;;4974216;28;85290;-73
2023/05/23 03:01:19;;;;;;;73.85;56.90;;;15.40;87.20;;;;;;4975050;28;86713;-75
2023/05/23 03:03:45;;;;;;;71.32;57.83;;;15.40;87.00;;;;;;4972299;28;85976;-72
2023/05/23 03:06:13;;;;;;;70.90;56.13;;;15.40;86.80;;;;;;4974832;28;84856;-73
2023/05/23 03:08:42;;;;;;;75.00;58.63;;;15.50;88.00;;;;;;4979697;28;85287;-73
2023/05/23 03:11:08;;;;;;;75.07;57.97;;;15.50;86.80;;;;;;4972593;28;87053;-74
2023/05/23 03:13:34;;;;;;;76.28;58.72;;;15.40;86.90;;;;;;4980112;28;85047;-72
2023/05/23 03:16:00;;;;;;;75.82;57.78;;;15.40;86.20;;;;;;4973101;28;85056;-74
2023/05/23 03:18:26;;;;;;;75.07;58.03;;;15.40;87.50;;;;;;4974558;28;85767;-73
2023/05/23 03:20:52;;;;;;;73.30;58.72;;;15.40;86.70;;;;;;4977820;28;85061;-71
2023/05/23 03:23:17;;;;;;;75.97;58.70;;;15.40;86.50;;;;;;4974554;28;84935;-76
2023/05/23 03:25:43;;;;;;;78.45;58.45;;;15.40;87.50;;;;;;4975140;28;85590;-74
2023/05/23 03:28:11;;;;;;;76.88;58.42;;;15.40;87.00;;;;;;4966741;28;85057;-74
2023/05/23 03:30:36;;;;;;;76.28;59.03;;;15.40;87.00;;;;;;4980008;28;85347;-72
2023/05/23 03:33:02;;;;;;;77.07;57.80;;;15.40;88.10;;;;;;4977779;28;85503;-72
2023/05/23 03:35:28;;;;;;;79.43;58.15;;;15.30;87.20;;;;;;4976005;28;86107;-76
2023/05/23 03:37:54;;;;;;;78.55;59.13;;;15.30;87.00;;;;;;4980029;28;85513;-76
2023/05/23 03:40:20;;;;;;;71.20;55.63;;;15.30;86.50;;;;;;4973381;28;87130;-74
2023/05/23 03:42:50;;;;;;;71.43;56.92;;;15.40;87.60;;;;;;4983500;28;84739;-74
2023/05/23 03:45:17;;;;;;;70.30;55.15;;;15.40;87.30;;;;;;4981265;28;85374;-71
2023/05/23 03:47:42;;;;;;;65.60;53.53;;;15.40;88.10;;;;;;4971973;28;84970;-73
2023/05/23 03:50:08;;;;;;;72.95;56.30;;;15.40;87.40;;;;;;4974942;28;85448;-74
2023/05/23 03:52:34;;;;;;;70.00;55.60;;;15.30;86.90;;;;;;4976785;28;86351;-73
2023/05/23 03:55:00;;;;;;;65.82;53.30;;;15.40;86.80;;;;;;4978299;28;85285;-71
2023/05/23 03:57:25;;;;;;;70.35;55.20;;;15.40;88.80;;;;;;4980499;28;85869;-73
2023/05/23 03:59:51;;;;;;;71.25;55.15;;;15.40;87.80;;;;;;4982932;28;85556;-71
2023/05/23 04:02:17;;;;;;;69.45;55.00;;;15.40;87.30;;;;;;4956605;28;85918;-74
2023/05/23 04:04:43;;;;;;;72.90;54.92;;;15.40;87.80;;;;;;4971577;28;84889;-71
2023/05/23 04:07:08;;;;;;;73.63;57.33;;;15.40;87.40;;;;;;4979397;28;85964;-75
2023/05/23 04:09:34;;;;;;;75.82;57.28;;;15.30;87.30;;;;;;4972028;28;85370;-73
2023/05/23 04:12:00;;;;;;;77.38;57.85;;;15.30;87.10;;;;;;4974771;28;86162;-72
2023/05/23 04:14:26;;;;;;;73.38;56.33;;;15.30;87.10;;;;;;4971642;28;85441;-75
2023/05/23 04:16:52;;;;;;;72.72;55.35;;;15.40;87.30;;;;;;4972385;28;85314;-73
2023/05/23 04:19:18;;;;;;;69.82;54.72;;;15.40;87.50;;;;;;4978612;28;85721;-73
2023/05/23 04:21:43;;;;;;;72.50;56.58;;;15.30;88.20;;;;;;4977278;28;85187;-73
2023/05/23 04:24:10;;;;;;;66.50;54.55;;;15.30;87.00;;;;;;4975070;28;87384;-74
2023/05/23 04:26:36;;;;;;;69.97;55.15;;;15.40;88.70;;;;;;4974973;28;86048;-74
2023/05/23 04:29:03;;;;;;;71.97;55.83;;;15.40;87.50;;;;;;4979280;28;87307;-76
2023/05/23 04:31:28;;;;;;;69.05;55.05;;;15.30;87.20;;;;;;4968712;28;85269;-75
2023/05/23 04:33:55;;;;;;;72.20;55.40;;;15.40;87.30;;;;;;4976191;28;85791;-74
2023/05/23 04:36:22;;;;;;;67.90;54.70;;;15.40;87.30;;;;;;4974982;28;87167;-74
2023/05/23 04:38:48;;;;;;;69.22;53.20;;;15.40;87.70;;;;;;4969864;28;86742;-74
2023/05/23 04:41:15;;;;;;;70.78;54.97;;;15.40;87.90;;;;;;4974415;28;86011;-77
2023/05/23 04:43:41;;;;;;;65.85;53.28;;;15.40;88.20;;;;;;4978658;28;86619;-75
2023/05/23 04:46:09;;;;;;;65.97;53.30;;;15.40;88.40;;;;;;4978509;28;85632;-76
2023/05/23 04:48:36;;;;;;;67.22;52.67;;;15.30;88.10;;;;;;4976762;28;85343;-77
2023/05/23 04:51:05;;;;;;;67.70;53.88;;;15.40;88.10;;;;;;4980918;28;85789;-74
2023/05/23 04:53:30;;;;;;;70.65;54.83;;;15.40;87.60;;;;;;4973746;28;85097;-76
2023/05/23 04:55:56;;;;;;;69.65;54.20;;;15.30;87.50;;;;;;4974577;28;86999;-75
2023/05/23 04:58:22;;;;;;;74.53;54.70;;;15.30;87.00;;;;;;4975069;28;87256;-73
2023/05/23 05:00:47;;;;;;;69.47;54.53;;;15.30;87.30;;;;;;4982178;28;86714;-75
2023/05/23 05:03:13;;;;;;;69.30;54.50;;;15.30;86.90;;;;;;4977904;28;85556;-76
2023/05/23 05:05:39;;;;;;;67.82;53.63;;;15.30;87.70;;;;;;4981433;28;85733;-75
2023/05/23 05:08:05;;;;;;;70.15;54.20;;;15.30;87.00;;;;;;4988220;27;84596;-74
2023/05/23 05:10:30;;;;;;;75.63;55.00;;;15.30;87.50;;;;;;4987211;22;85264;-56
2023/05/23 05:12:56;;;;;;;69.70;52.75;;;15.30;87.80;;;;;;4951487;28;86665;-56
2023/05/23 05:15:34;;;;;;;69.20;53.95;;;15.40;90.00;;;;;;4957317;28;85286;-56
2023/05/23 05:18:00;;;;;;;69.50;53.85;;;15.40;88.40;;;;;;4961668;28;84645;-59
2023/05/23 05:20:25;;;;;;;74.85;54.70;;;15.40;87.30;;;;;;4963449;28;84985;-62
2023/05/23 05:22:56;;;;;;;67.82;53.78;;;15.40;87.10;;;;;;4960453;28;85539;-52
2023/05/23 05:25:23;;;;;;;71.20;53.40;;;15.40;87.10;;;;;;4962894;28;84897;-59
2023/05/23 05:27:49;;;;;;;69.82;53.25;;;15.40;87.10;;;;;;4958108;28;84424;-56
2023/05/23 05:30:15;;;;;;;68.97;53.70;;;15.30;87.60;;;;;;4961648;28;84786;-57
2023/05/23 05:32:44;;;;;;;71.35;53.95;;;15.40;88.10;;;;;;4961376;28;85450;-54
2023/05/23 05:35:12;;;;;;;74.05;54.15;;;15.40;87.30;;;;;;4963897;28;85106;-52
2023/05/23 05:37:38;;;;;;;68.63;53.10;;;15.40;87.00;;;;;;4964859;28;86323;-60
2023/05/23 05:40:06;;;;;;;69.70;53.42;;;15.40;87.50;;;;;;4952658;28;85283;-54
2023/05/23 05:42:32;;;;;;;72.40;53.83;;;15.40;87.00;;;;;;4955278;28;86353;-60
2023/05/23 05:44:58;;;;;;;73.80;54.00;;;15.40;86.60;;;;;;4958898;28;87249;-60
2023/05/23 05:47:23;;;;;;;70.15;53.30;;;15.40;87.00;;;;;;4965027;28;86285;-55
2023/05/23 05:49:49;;;;;;;68.85;53.20;;;15.40;87.30;;;;;;4966178;28;84299;-61
2023/05/23 05:52:15;;;;;;;71.30;52.88;;;15.30;86.90;;;;;;4961731;28;86973;-52
2023/05/23 05:54:40;;;;;;;70.88;53.58;;;15.40;87.30;;;;;;4966045;28;85050;-55
2023/05/23 05:57:06;;;;;;;68.70;53.42;;;15.30;86.70;;;;;;4965366;28;86198;-57
2023/05/23 05:59:31;;;;;;;70.13;53.05;;;15.40;86.50;;;;;;4965191;28;84950;-61
2023/05/23 06:01:57;;;;;;;68.53;52.88;;;15.30;88.30;;;;;;4964468;28;85901;-60
2023/05/23 06:04:23;;;;;;;69.22;52.97;;;15.40;88.50;;;;;;4960084;28;84896;-57
2023/05/23 06:06:48;;;;;;;75.05;54.67;;;15.40;87.00;;;;;;4966513;28;85649;-58
2023/05/23 06:09:14;;;;;;;73.45;53.53;;;15.40;86.50;;;;;;4961166;28;85878;-56
2023/05/23 06:11:40;;;;;;;67.18;52.90;;;15.40;86.90;;;;;;4942454;28;85988;-61
2023/05/23 06:14:06;;;;;;;72.32;53.72;;;15.40;87.30;;;;;;4945219;28;85305;-56
2023/05/23 06:16:32;;;;;;;70.90;54.03;;;15.40;86.60;;;;;;4943964;28;84466;-58
2023/05/23 06:18:58;;;;;;;69.00;53.15;;;15.40;86.60;;;;;;4943436;28;84600;-58
2023/05/23 06:21:24;;;;;;;66.05;52.63;;;15.40;87.50;;;;;;4940280;28;85364;-54
2023/05/23 06:23:49;;;;;;;67.13;52.88;;;15.50;88.00;;;;;;4941793;28;85657;-58
2023/05/23 06:26:15;;;;;;;70.38;53.35;;;15.40;88.10;;;;;;4942365;28;87170;-60
2023/05/23 06:28:41;;;;;;;68.72;52.60;;;15.40;86.80;;;;;;4947222;28;85135;-57
2023/05/23 06:31:10;;;;;;;65.15;52.35;;;15.50;88.00;;;;;;4943834;28;85005;-57
2023/05/23 06:33:36;;;;;;;67.97;52.92;;;15.50;88.00;;;;;;4945788;28;84796;-44
2023/05/23 06:36:01;;;;;;;69.05;52.85;;;15.50;86.20;;;;;;4947369;28;85380;-43
2023/05/23 06:38:30;;;;;;;65.65;52.25;;;15.50;85.90;;;;;;4941576;28;85060;-44
2023/05/23 06:40:55;;;;;;;67.25;52.85;;;15.50;88.70;;;;;;4943131;28;85191;-46
2023/05/23 06:43:21;;;;;;;65.00;52.10;;;15.50;85.70;;;;;;4946651;28;85119;-45
2023/05/23 06:45:47;;;;;;;64.68;52.47;;;15.60;87.50;;;;;;4945502;28;85593;-46
2023/05/23 06:48:13;;;;;;;69.07;52.58;;;15.50;86.60;;;;;;4944370;28;85171;-46
2023/05/23 06:50:39;;;;;;;65.20;52.63;;;15.60;86.10;;;;;;4946653;28;87205;-47
2023/05/23 06:53:05;;;;;;;68.70;52.53;;;15.60;85.50;;;;;;4939490;28;85287;-46
2023/05/23 06:55:32;;;;;;;68.38;52.10;;;15.70;85.20;;;;;;4942086;28;85214;-46
2023/05/23 06:57:58;;;;;;;64.50;51.80;;;15.60;84.80;;;;;;4943869;28;85095;-44
2023/05/23 07:00:24;;;;;;;67.25;52.22;;;15.60;84.90;;;;;;4944312;28;85166;-45
2023/05/23 07:02:50;;;;;;;65.63;52.20;;;15.70;85.30;;;;;;4944175;28;85354;-46
2023/05/23 07:05:16;;;;;;;65.35;52.05;;;15.70;84.90;;;;;;4940130;28;86027;-45
2023/05/23 07:07:42;;;;;;;66.80;51.80;;;15.70;84.80;;;;;;4944815;28;85027;-47
2023/05/23 07:10:08;;;;;;;70.07;52.47;;;15.80;85.60;;;;;;4949385;28;85506;-44
2023/05/23 07:12:34;;;;;;;65.70;51.78;;;15.80;85.20;;;;;;4960271;28;85553;-45
2023/05/23 07:15:00;;;;;;;69.47;52.47;;;15.90;85.00;;;;;;4961165;28;85802;-50
2023/05/23 07:17:28;;;;;;;67.80;51.85;;;16.00;85.50;;;;;;4961575;28;85850;-49
2023/05/23 07:19:54;;;;;;;66.07;52.47;;;15.90;84.90;;;;;;4961388;28;86702;-46
2023/05/23 07:22:20;;;;;;;66.85;52.13;;;16.00;84.80;;;;;;4962838;28;86404;-58
2023/05/23 07:24:46;;;;;;;66.88;52.35;;;16.10;84.30;;;;;;4962170;28;85570;-59
2023/05/23 07:27:11;;;;;;;66.15;51.92;;;16.10;84.50;;;;;;4960856;28;84860;-57
2023/05/23 07:29:37;;;;;;;65.18;51.78;;;16.10;84.20;;;;;;4958874;28;84953;-59
2023/05/23 07:32:03;;;;;;;65.88;52.30;;;16.10;83.60;;;;;;4965048;28;84884;-60
2023/05/23 07:34:29;;;;;;;67.60;52.13;;;16.20;84.00;;;;;;4964334;28;85528;-61
2023/05/23 07:36:55;;;;;;;65.25;51.83;;;16.10;82.60;;;;;;4962499;28;84567;-56
2023/05/23 07:39:21;;;;;;;67.47;52.80;;;16.20;83.40;;;;;;4955969;28;84955;-60
2023/05/23 07:41:47;;;;;;;65.43;51.35;;;16.20;82.10;;;;;;4958827;28;85137;-58
2023/05/23 07:44:13;;;;;;;68.50;52.10;;;16.20;83.70;;;;;;4963331;28;84726;-62
2023/05/23 07:46:39;;;;;;;67.40;52.40;;;16.20;82.20;;;;;;4964064;28;86902;-58
2023/05/23 07:49:05;;;;;;;65.90;51.90;;;16.30;82.80;;;;;;4964200;28;85488;-55
2023/05/23 07:51:31;;;;;;;65.38;52.03;;;16.30;82.80;;;;;;4964007;28;84660;-59
2023/05/23 07:53:57;;;;;;;65.22;52.15;;;16.30;82.40;;;;;;4964822;28;84720;-62
2023/05/23 07:56:22;;;;;;;68.30;52.17;;;16.30;83.60;;;;;;4961068;28;85319;-61
2023/05/23 07:58:48;;;;;;;66.93;52.15;;;16.40;83.20;;;;;;4963447;28;86478;-58
2023/05/23 08:01:13;;;;;;;67.22;51.78;;;16.40;82.20;;;;;;4950962;28;86376;-55
2023/05/23 08:03:39;;;;;;;65.18;51.90;;;16.40;83.40;;;;;;4956403;28;87710;-55
2023/05/23 08:06:06;;;;;;;65.72;51.60;;;16.50;83.30;;;;;;4963935;28;85519;-49
2023/05/23 08:08:32;;;;;;;66.43;51.90;;;16.50;83.20;;;;;;4962319;28;84681;-57
2023/05/23 08:10:58;;;;;;;66.43;51.38;;;16.50;82.80;;;;;;4957700;28;85309;-59
2023/05/23 08:13:23;;;;;;;65.65;52.20;;;16.50;81.80;;;;;;4961240;28;84441;-61
2023/05/23 08:15:49;;;;;;;65.28;52.25;;;16.40;82.80;;;;;;4961299;28;86007;-58
2023/05/23 08:18:15;;;;;;;65.78;51.75;;;16.40;82.10;;;;;;4960667;28;85412;-57
2023/05/23 08:20:42;;;;;;;64.55;51.92;;;16.40;82.80;;;;;;4963727;28;84781;-58
2023/05/23 08:23:07;;;;;;;66.90;51.38;;;16.30;81.70;;;;;;4957780;28;85689;-59
2023/05/23 08:25:33;;;;;;;66.72;51.95;;;16.30;81.90;;;;;;4962293;28;84714;-61
2023/05/23 08:28:00;;;;;;;66.72;51.72;;;16.40;82.90;;;;;;4962466;28;85061;-61
2023/05/23 08:30:27;;;;;;;64.85;51.42;;;16.40;82.00;;;;;;4961862;28;84845;-59
2023/05/23 08:32:54;;;;;;;65.15;51.30;;;16.40;81.90;;;;;;4960747;28;84846;-61
2023/05/23 08:35:20;;;;;;;64.22;51.33;;;16.40;82.10;;;;;;4960229;28;86377;-59
2023/05/23 08:37:46;;;;;;;66.38;51.35;;;16.40;82.70;;;;;;4963016;28;85366;-54
2023/05/23 08:40:20;;;;;;;64.93;51.70;;;16.30;81.50;;;;;;4957255;28;87052;-56
2023/05/23 08:42:47;;;;;;;66.80;51.75;;;16.30;81.70;;;;;;4961500;28;85206;-58
2023/05/23 08:45:13;;;;;;;66.13;51.28;;;16.30;81.50;;;;;;4958855;28;85188;-62
2023/05/23 08:47:42;;;;;;;64.85;51.33;;;16.30;81.80;;;;;;4958541;28;85243;-61
2023/05/23 08:50:12;;;;;;;67.82;51.47;;;16.20;80.70;;;;;;4966174;28;85449;-60
2023/05/23 08:52:46;;;;;;;63.55;51.63;;;16.20;81.30;;;;;;4968370;28;84788;-60
2023/05/23 08:55:13;;;;;;;64.30;51.17;;;16.20;82.30;;;;;;4964561;28;85348;-55
2023/05/23 08:57:44;;;;;;;64.78;51.25;;;16.30;82.00;;;;;;4965708;28;85003;-59
2023/05/23 09:00:13;;;;;;;63.30;51.25;;;16.30;81.70;;;;;;4966712;28;86196;-56
2023/05/23 09:02:42;;;;;;;65.40;51.13;;;16.30;81.00;;;;;;4962776;28;84780;-60
2023/05/23 09:05:11;;;;;;;62.67;50.85;;;16.30;81.80;;;;;;4967910;28;85129;-59
2023/05/23 09:07:37;;;;;;;67.22;51.42;;;16.30;81.30;;;;;;4966170;28;89041;-58
2023/05/23 09:10:08;;;;;;;63.60;50.58;;;16.30;82.10;;;;;;4965487;28;88686;-55
2023/05/23 09:12:37;;;;;;;61.47;50.15;;;16.30;81.30;;;;;;4965299;28;89411;-57
2023/05/23 09:15:05;;;;;;;64.60;50.38;;;16.30;81.80;;;;;;4966129;28;89561;-55
2023/05/23 09:17:35;;;;;;;63.88;51.17;;;16.30;81.30;;;;;;4963353;28;90346;-58
2023/05/23 09:20:09;;;;;;;66.13;50.42;;;16.30;82.20;;;;;;4963328;28;90459;-60
2023/05/23 09:22:35;;;;;;;64.50;51.72;;;16.30;81.00;;;;;;4963684;28;89607;-45
2023/05/23 09:25:01;;;;;;;63.80;50.33;;;16.30;83.10;;;;;;4963013;28;89393;-47
2023/05/23 09:27:27;;;;;;;62.30;50.00;;;16.30;82.00;;;;;;4957670;28;90250;-47
2023/05/23 09:29:52;;;;;;;63.30;50.53;;;16.30;81.30;;;;;;4960993;28;90069;-44
2023/05/23 09:32:19;;;;;;;63.40;50.05;;;16.30;81.80;;;;;;4962894;28;89604;-45
2023/05/23 09:35:02;;;;;;;60.88;50.25;;;16.30;81.00;;;;;;4965308;28;88756;-45
2023/05/23 09:37:31;;;;;;;61.97;50.10;;;16.30;81.80;;;;;;4961103;28;90578;-46
2023/05/23 09:39:59;;;;;;;63.80;49.40;;;16.30;81.30;;;;;;4960359;28;90717;-49
2023/05/23 09:42:30;;;;;;;61.60;49.72;;;16.30;81.50;;;;;;4955099;28;90519;-44
2023/05/23 09:44:55;;;;;;;64.25;49.95;;;16.30;81.00;;;;;;4963004;28;90085;-45
2023/05/23 09:47:21;;;;;;;62.13;49.97;;;16.30;80.70;;;;;;4961231;28;89487;-47
2023/05/23 09:49:47;;;;;;;63.20;50.13;;;16.40;81.40;;;;;;4962818;28;89482;-46
2023/05/23 09:52:13;;;;;;;63.92;49.90;;;16.40;79.90;;;;;;4963270;28;89601;-46
2023/05/23 09:54:39;;;;;;;61.38;50.13;;;16.40;80.50;;;;;;4960104;28;90751;-48
2023/05/23 09:57:09;;;;;;;61.78;49.75;;;16.50;80.00;;;;;;4958767;28;89554;-44
2023/05/23 09:59:39;;;;;;;63.58;50.38;;;16.50;79.60;;;;;;4957542;28;89742;-45
2023/05/23 10:02:07;;;;;;;62.08;50.47;;;16.60;80.40;;;;;;4960901;28;89932;-58
2023/05/23 10:04:34;;;;;;;63.05;51.13;;;16.70;79.60;;;;;;4966715;28;89473;-55
2023/05/23 10:07:22;;;;;;;63.70;50.72;;;16.80;81.10;;;;;;4959052;28;90797;-53
2023/05/23 10:09:55;;;;;;;62.20;49.65;;;16.90;80.10;;;;;;4961587;28;89879;-56
2023/05/23 10:12:53;;;;;;;61.45;49.85;;;16.80;79.40;;;;;;4961830;28;89137;-61
2023/05/23 10:15:20;;;;;;;62.42;50.28;;;16.90;79.60;;;;;;4959213;28;89128;-58
2023/05/23 10:18:01;;;;;;;62.70;50.30;;;16.90;79.80;;;;;;4961927;28;90298;-59
2023/05/23 10:20:31;;;;;;;66.03;50.88;;;16.80;79.60;;;;;;4959437;28;89806;-53
2023/05/23 10:23:01;;;;;;;62.70;49.80;;;16.90;80.30;;;;;;4960597;28;89261;-53
2023/05/23 10:25:28;;;;;;;61.90;50.58;;;16.90;79.80;;;;;;4963483;28;89893;-51
2023/05/23 10:27:57;;;;;;;62.25;50.25;;;16.90;79.80;;;;;;4960130;28;89805;-61
2023/05/23 10:30:26;;;;;;;63.05;50.55;;;17.00;79.70;;;;;;4959422;28;90522;-54
2023/05/23 10:32:54;;;;;;;61.33;49.83;;;17.00;79.50;;;;;;4959588;28;90066;-60
2023/05/23 10:35:45;;;;;;;64.13;50.35;;;17.00;79.00;;;;;;4961768;28;90265;-54
2023/05/23 10:38:32;;;;;;;63.22;50.85;;;17.00;79.40;;;;;;4961614;28;90273;-57
2023/05/23 10:41:15;;;;;;;61.60;49.55;;;17.00;79.70;;;;;;4962604;28;89917;-55
2023/05/23 10:43:47;;;;;;;64.57;50.17;;;17.00;79.10;;;;;;4964823;28;89882;-59
2023/05/23 10:46:14;;;;;;;63.33;50.03;;;17.00;79.30;;;;;;4960938;28;89683;-60
2023/05/23 10:48:43;;;;;;;64.15;50.22;;;17.00;79.40;;;;;;4965435;28;89211;-58
2023/05/23 10:51:16;;;;;;;62.63;50.20;;;17.00;79.30;;;;;;4959917;28;89112;-44
2023/05/23 10:53:46;;;;;;;65.05;51.63;;;17.20;79.20;;;;;;4958713;28;89525;-57
2023/05/23 10:56:22;;;;;;;63.75;50.90;;;17.30;80.20;;;;;;4963818;28;89361;-56
2023/05/23 10:58:55;;;;;;;64.75;50.83;;;17.40;77.80;;;;;;4965377;28;91110;-61
2023/05/23 11:01:21;;;;;;;64.97;51.22;;;17.50;77.20;;;;;;4961261;28;90091;-58
2023/05/23 11:03:46;;;;;;;63.55;51.10;;;17.50;78.50;;;;;;4959480;28;88971;-63
2023/05/23 11:06:32;;;;;;;65.70;50.97;;;17.50;78.60;;;;;;4961357;28;89667;-57
2023/05/23 11:09:05;;;;;;;65.72;51.50;;;17.50;77.20;;;;;;4962208;28;89608;-56
2023/05/23 11:11:52;;;;;;;68.47;51.45;;;17.60;77.80;;;;;;4956212;28;90136;-55
2023/05/23 11:14:39;;;;;;;65.30;50.72;;;17.70;76.30;;;;;;4958354;28;89221;-59
2023/05/23 11:17:15;;;;;;;67.45;50.83;;;17.70;77.40;;;;;;4958903;28;88591;-54
2023/05/23 11:20:08;;;;;;;65.15;51.13;;;17.80;76.60;;;;;;4964370;28;90086;-56
2023/05/23 11:22:35;;;;;;;64.20;51.40;;;17.80;76.40;;;;;;4960649;28;89544;-61
2023/05/23 11:25:06;;;;;;;63.85;51.28;;;17.90;76.80;;;;;;4962658;28;90550;-61
2023/05/23 11:27:33;;;;;;;66.78;51.03;;;17.90;76.60;;;;;;4960253;28;89325;-56
2023/05/23 11:30:02;;;;;;;67.43;51.25;;;18.00;75.60;;;;;;4960096;28;90844;-62
2023/05/23 11:32:30;;;;;;;69.75;51.58;;;18.00;74.90;;;;;;4957811;28;89534;-56
2023/05/23 11:34:59;;;;;;;66.00;51.17;;;18.10;75.00;;;;;;4957663;28;89871;-62
2023/05/23 11:37:25;;;;;;;65.72;51.25;;;18.10;73.70;;;;;;4964041;28;89603;-59
2023/05/23 11:39:51;;;;;;;66.15;51.47;;;18.10;74.60;;;;;;4955708;28;89832;-54
2023/05/23 11:42:16;;;;;;;66.40;51.15;;;18.20;74.50;;;;;;4958564;28;88978;-62
2023/05/23 11:44:43;;;;;;;67.35;51.40;;;18.20;75.10;;;;;;4959508;28;89202;-61
2023/05/23 11:47:09;;;;;;;67.18;51.60;;;18.30;75.00;;;;;;4962026;28;89478;-58
2023/05/23 11:49:37;;;;;;;65.80;50.90;;;18.30;74.60;;;;;;4959866;28;90190;-60
2023/05/23 11:52:03;;;;;;;66.07;51.33;;;18.40;74.50;;;;;;4962626;28;89902;-59
2023/05/23 11:54:29;;;;;;;66.45;51.20;;;18.40;73.80;;;;;;4961635;28;90231;-59
2023/05/23 11:56:56;;;;;;;66.07;51.15;;;18.50;73.40;;;;;;4958721;28;89241;-62
2023/05/23 11:59:22;;;;;;;68.10;51.53;;;18.60;72.40;;;;;;4964801;28;89729;-58
2023/05/23 12:01:48;;;;;;;70.05;51.47;;;18.50;71.20;;;;;;4955694;28;90359;-46
2023/05/23 12:04:14;;;;;;;68.80;51.58;;;18.50;71.40;;;;;;4959459;28;89609;-46
2023/05/23 12:06:40;;;;;;;68.07;51.67;;;18.50;72.40;;;;;;4961228;28;89118;-46
2023/05/23 12:09:12;;;;;;;65.18;51.70;;;18.60;72.70;;;;;;4960672;28;90476;-47
2023/05/23 12:11:40;;;;;;;65.20;51.33;;;18.60;72.80;;;;;;4959783;28;89492;-47
2023/05/23 12:14:06;;;;;;;67.88;51.15;;;18.50;72.90;;;;;;4959141;28;92342;-45
2023/05/23 12:16:33;;;;;;;65.68;51.30;;;18.50;71.70;;;;;;4953554;28;89473;-50
2023/05/23 12:19:03;;;;;;;66.55;51.15;;;18.50;72.60;;;;;;4958949;28;90716;-50
2023/05/23 12:21:41;;;;;;;65.88;51.35;;;18.40;72.60;;;;;;4957639;28;89808;-60
2023/05/23 12:24:20;;;;;;;66.70;51.45;;;18.50;74.10;;;;;;4955478;28;88717;-61
2023/05/23 12:26:58;;;;;;;66.82;51.50;;;18.60;73.20;;;;;;4960178;28;89803;-60
2023/05/23 12:29:32;;;;;;;67.32;50.85;;;18.60;73.30;;;;;;4960006;28;89620;-55
2023/05/23 12:31:59;;;;;;;65.28;51.05;;;18.60;73.80;;;;;;4957746;28;88695;-56